sensor_id;sensor_type;location;lat;lon;timestamp;pressure;altitude;pressure_sealevel;temperature;humidity
78623;BME280;67943;54.412;9.502;2024-03-02T00:02:12;100318.97;;;9.40;79.40
78623;BME280;67943;54.412;9.502;2024-03-02T00:07:14;100311.16;;;9.37;79.41
78623;BME280;67943;54.412;9.502;2024-03-02T00:12:15;100311.13;;;9.38;79.53
78623;BME280;67943;54.412;9.502;2024-03-02T00:17:24;100309.28;;;9.42;79.35
78623;BME280;67943;54.412;9.502;2024-03-02T00:22:26;100299.75;;;9.38;79.33
78623;BME280;67943;54.412;9.502;2024-03-02T00:27:28;100293.50;;;9.43;79.38
78623;BME280;67943;54.412;9.502;2024-03-02T00:32:32;100288.25;;;9.43;79.49
78623;BME280;67943;54.412;9.502;2024-03-02T00:37:34;100284.81;;;9.41;79.71
78623;BME280;67943;54.412;9.502;2024-03-02T00:42:36;100284.88;;;9.38;79.88
78623;BME280;67943;54.412;9.502;2024-03-02T00:47:39;100285.69;;;9.40;79.92
78623;BME280;67943;54.412;9.502;2024-03-02T00:52:41;100273.50;;;9.38;79.70
78623;BME280;67943;54.412;9.502;2024-03-02T00:57:42;100274.38;;;9.38;80.06
78623;BME280;67943;54.412;9.502;2024-03-02T01:02:45;100276.16;;;9.36;79.89
78623;BME280;67943;54.412;9.502;2024-03-02T01:07:47;100277.00;;;9.38;79.87
78623;BME280;67943;54.412;9.502;2024-03-02T01:12:48;100274.44;;;9.35;80.01
78623;BME280;67943;54.412;9.502;2024-03-02T01:17:51;100276.09;;;9.39;79.98
78623;BME280;67943;54.412;9.502;2024-03-02T01:22:53;100278.19;;;9.25;80.49
78623;BME280;67943;54.412;9.502;2024-03-02T01:27:54;100286.75;;;9.33;80.22
78623;BME280;67943;54.412;9.502;2024-03-02T01:32:57;100276.19;;;9.35;80.35
78623;BME280;67943;54.412;9.502;2024-03-02T01:37:59;100281.38;;;9.38;80.00
78623;BME280;67943;54.412;9.502;2024-03-02T01:43:00;100273.47;;;9.39;80.05
78623;BME280;67943;54.412;9.502;2024-03-02T01:48:05;100265.59;;;9.39;80.26
78623;BME280;67943;54.412;9.502;2024-03-02T01:53:08;100268.09;;;9.44;79.70
78623;BME280;67943;54.412;9.502;2024-03-02T01:58:10;100262.13;;;9.37;80.14
78623;BME280;67943;54.412;9.502;2024-03-02T02:03:13;100260.41;;;9.36;79.96
78623;BME280;67943;54.412;9.502;2024-03-02T02:08:14;100253.44;;;9.35;80.02
78623;BME280;67943;54.412;9.502;2024-03-02T02:13:16;100252.47;;;9.39;80.08
78623;BME280;67943;54.412;9.502;2024-03-02T02:18:19;100262.13;;;9.37;80.08
78623;BME280;67943;54.412;9.502;2024-03-02T02:23:21;100263.72;;;9.44;79.78
78623;BME280;67943;54.412;9.502;2024-03-02T02:28:23;100257.66;;;9.42;80.09
78623;BME280;67943;54.412;9.502;2024-03-02T02:33:24;100259.34;;;9.45;79.88
78623;BME280;67943;54.412;9.502;2024-03-02T02:38:27;100251.41;;;9.46;79.92
78623;BME280;67943;54.412;9.502;2024-03-02T02:43:29;100251.50;;;9.43;80.11
78623;BME280;67943;54.412;9.502;2024-03-02T02:48:30;100247.06;;;9.45;80.07
78623;BME280;67943;54.412;9.502;2024-03-02T02:53:33;100254.06;;;9.45;80.38
78623;BME280;67943;54.412;9.502;2024-03-02T02:58:35;100242.78;;;9.41;80.47
78623;BME280;67943;54.412;9.502;2024-03-02T03:03:37;100233.06;;;9.45;80.39
78623;BME280;67943;54.412;9.502;2024-03-02T03:08:40;100238.22;;;9.50;80.71
78623;BME280;67943;54.412;9.502;2024-03-02T03:13:41;100227.81;;;9.45;80.94
78623;BME280;67943;54.412;9.502;2024-03-02T03:18:43;100219.81;;;9.50;80.75
78623;BME280;67943;54.412;9.502;2024-03-02T03:23:46;100218.09;;;9.48;80.84
78623;BME280;67943;54.412;9.502;2024-03-02T03:28:47;100209.25;;;9.53;80.97
78623;BME280;67943;54.412;9.502;2024-03-02T03:33:49;100203.03;;;9.55;80.79
78623;BME280;67943;54.412;9.502;2024-03-02T03:38:52;100211.22;;;9.44;81.50
78623;BME280;67943;54.412;9.502;2024-03-02T03:43:53;100225.84;;;9.53;81.70
78623;BME280;67943;54.412;9.502;2024-03-02T03:48:55;100227.50;;;9.56;80.93
78623;BME280;67943;54.412;9.502;2024-03-02T03:53:58;100231.28;;;9.47;81.29
78623;BME280;67943;54.412;9.502;2024-03-02T03:59:00;100225.22;;;9.43;81.85
78623;BME280;67943;54.412;9.502;2024-03-02T04:04:02;100228.84;;;9.39;82.42
78623;BME280;67943;54.412;9.502;2024-03-02T04:09:05;100226.22;;;9.39;82.74
78623;BME280;67943;54.412;9.502;2024-03-02T04:14:07;100223.44;;;9.45;82.59
78623;BME280;67943;54.412;9.502;2024-03-02T04:19:09;100227.78;;;9.46;82.06
78623;BME280;67943;54.412;9.502;2024-03-02T04:24:11;100233.84;;;9.48;82.19
78623;BME280;67943;54.412;9.502;2024-03-02T04:29:13;100235.59;;;9.50;81.97
78623;BME280;67943;54.412;9.502;2024-03-02T04:34:15;100235.75;;;9.43;82.17
78623;BME280;67943;54.412;9.502;2024-03-02T04:39:17;100230.56;;;9.40;82.28
78623;BME280;67943;54.412;9.502;2024-03-02T04:44:19;100230.78;;;9.31;83.31
78623;BME280;67943;54.412;9.502;2024-03-02T04:49:21;100230.72;;;9.34;83.63
78623;BME280;67943;54.412;9.502;2024-03-02T04:54:24;100235.97;;;9.34;83.34
78623;BME280;67943;54.412;9.502;2024-03-02T04:59:25;100228.13;;;9.33;83.40
78623;BME280;67943;54.412;9.502;2024-03-02T05:04:27;100229.84;;;9.34;83.09
78623;BME280;67943;54.412;9.502;2024-03-02T05:09:30;100227.34;;;9.29;83.77
78623;BME280;67943;54.412;9.502;2024-03-02T05:14:31;100222.94;;;9.30;83.62
78623;BME280;67943;54.412;9.502;2024-03-02T05:19:33;100222.00;;;9.32;83.51
78623;BME280;67943;54.412;9.502;2024-03-02T05:24:35;100216.94;;;9.25;84.14
78623;BME280;67943;54.412;9.502;2024-03-02T05:29:37;100213.47;;;9.24;84.17
78623;BME280;67943;54.412;9.502;2024-03-02T05:34:39;100223.97;;;9.24;83.90
78623;BME280;67943;54.412;9.502;2024-03-02T05:39:42;100225.88;;;9.19;84.21
78623;BME280;67943;54.412;9.502;2024-03-02T05:44:44;100226.84;;;9.15;84.43
78623;BME280;67943;54.412;9.502;2024-03-02T05:49:46;100235.66;;;9.12;84.59
78623;BME280;67943;54.412;9.502;2024-03-02T05:54:48;100231.19;;;9.16;84.07
78623;BME280;67943;54.412;9.502;2024-03-02T05:59:50;100231.34;;;9.10;84.68
78623;BME280;67943;54.412;9.502;2024-03-02T06:04:54;100230.72;;;8.99;85.20
78623;BME280;67943;54.412;9.502;2024-03-02T06:09:57;100216.59;;;9.04;84.38
78623;BME280;67943;54.412;9.502;2024-03-02T06:14:58;100222.84;;;8.99;84.64
78623;BME280;67943;54.412;9.502;2024-03-02T06:20:00;100215.81;;;9.01;84.17
78623;BME280;67943;54.412;9.502;2024-03-02T06:25:04;100221.22;;;8.95;84.59
78623;BME280;67943;54.412;9.502;2024-03-02T06:30:06;100218.53;;;8.96;84.15
78623;BME280;67943;54.412;9.502;2024-03-02T06:35:08;100218.72;;;8.90;84.81
78623;BME280;67943;54.412;9.502;2024-03-02T06:40:11;100220.25;;;8.97;83.84
78623;BME280;67943;54.412;9.502;2024-03-02T06:45:13;100222.34;;;8.85;84.41
78623;BME280;67943;54.412;9.502;2024-03-02T06:50:14;100221.22;;;8.95;84.42
78623;BME280;67943;54.412;9.502;2024-03-02T06:55:17;100223.31;;;9.16;83.54
78623;BME280;67943;54.412;9.502;2024-03-02T07:00:19;100230.56;;;9.05;83.58
78623;BME280;67943;54.412;9.502;2024-03-02T07:05:21;100226.09;;;9.10;83.41
78623;BME280;67943;54.412;9.502;2024-03-02T07:10:24;100236.53;;;9.11;83.13
78623;BME280;67943;54.412;9.502;2024-03-02T07:15:25;100232.19;;;9.10;83.39
78623;BME280;67943;54.412;9.502;2024-03-02T07:20:44;100236.56;;;9.10;83.66
78623;BME280;67943;54.412;9.502;2024-03-02T07:25:47;100255.63;;;9.18;83.41
78623;BME280;67943;54.412;9.502;2024-03-02T07:30:57;100253.41;;;9.37;83.06
78623;BME280;67943;54.412;9.502;2024-03-02T07:36:00;100259.00;;;9.57;82.46
78623;BME280;67943;54.412;9.502;2024-03-02T07:41:03;100279.22;;;9.54;81.93
78623;BME280;67943;54.412;9.502;2024-03-02T07:46:05;100274.03;;;9.52;80.97
78623;BME280;67943;54.412;9.502;2024-03-02T07:51:07;100290.47;;;9.59;80.52
78623;BME280;67943;54.412;9.502;2024-03-02T07:56:10;100295.19;;;9.80;79.92
78623;BME280;67943;54.412;9.502;2024-03-02T08:01:11;100292.44;;;9.83;79.74
78623;BME280;67943;54.412;9.502;2024-03-02T08:06:13;100293.25;;;9.87;79.21
78623;BME280;67943;54.412;9.502;2024-03-02T08:11:16;100307.91;;;9.95;78.72
78623;BME280;67943;54.412;9.502;2024-03-02T08:16:18;100293.63;;;10.05;78.11
78623;BME280;67943;54.412;9.502;2024-03-02T08:21:20;100287.72;;;10.30;77.30
78623;BME280;67943;54.412;9.502;2024-03-02T08:26:23;100293.47;;;10.72;75.95
78623;BME280;67943;54.412;9.502;2024-03-02T08:31:24;100301.50;;;10.97;74.47
78623;BME280;67943;54.412;9.502;2024-03-02T08:36:26;100312.41;;;11.39;72.92
78623;BME280;67943;54.412;9.502;2024-03-02T08:41:29;100308.28;;;11.57;71.18
78623;BME280;67943;54.412;9.502;2024-03-02T08:46:30;100315.94;;;11.64;69.44
78623;BME280;67943;54.412;9.502;2024-03-02T08:51:32;100309.44;;;12.26;68.41
78623;BME280;67943;54.412;9.502;2024-03-02T08:56:35;100314.88;;;12.69;66.06
78623;BME280;67943;54.412;9.502;2024-03-02T09:01:36;100314.88;;;12.91;64.12
78623;BME280;67943;54.412;9.502;2024-03-02T09:06:41;100326.47;;;13.32;63.12
78623;BME280;67943;54.412;9.502;2024-03-02T09:11:45;100329.78;;;13.37;62.35
78623;BME280;67943;54.412;9.502;2024-03-02T09:16:47;100328.47;;;13.90;60.45
78623;BME280;67943;54.412;9.502;2024-03-02T09:21:48;100326.13;;;14.04;58.95
78623;BME280;67943;54.412;9.502;2024-03-02T09:26:51;100331.19;;;14.29;57.70
78623;BME280;67943;54.412;9.502;2024-03-02T09:31:53;100334.16;;;14.80;55.76
78623;BME280;67943;54.412;9.502;2024-03-02T09:36:54;100326.00;;;14.66;56.32
78623;BME280;67943;54.412;9.502;2024-03-02T09:41:58;100322.09;;;14.55;56.35
78623;BME280;67943;54.412;9.502;2024-03-02T09:47:00;100317.25;;;14.64;55.87
78623;BME280;67943;54.412;9.502;2024-03-02T09:52:03;100312.94;;;15.18;54.96
78623;BME280;67943;54.412;9.502;2024-03-02T09:57:07;100305.28;;;16.17;52.03
78623;BME280;67943;54.412;9.502;2024-03-02T10:02:09;100308.19;;;16.78;50.02
78623;BME280;67943;54.412;9.502;2024-03-02T10:07:12;100310.81;;;16.96;48.09
78623;BME280;67943;54.412;9.502;2024-03-02T10:12:16;100294.97;;;17.55;47.79
78623;BME280;67943;54.412;9.502;2024-03-02T10:17:18;100305.94;;;17.65;47.02
78623;BME280;67943;54.412;9.502;2024-03-02T10:22:23;100301.31;;;17.37;47.58
78623;BME280;67943;54.412;9.502;2024-03-02T10:27:27;100300.88;;;16.99;47.64
78623;BME280;67943;54.412;9.502;2024-03-02T10:32:29;100321.69;;;17.07;47.43
78623;BME280;67943;54.412;9.502;2024-03-02T10:37:30;100326.81;;;16.78;48.37
78623;BME280;67943;54.412;9.502;2024-03-02T10:42:35;100322.34;;;16.13;50.03
78623;BME280;67943;54.412;9.502;2024-03-02T10:47:41;100332.41;;;15.89;50.87
78623;BME280;67943;54.412;9.502;2024-03-02T10:52:43;100335.69;;;15.94;50.54
78623;BME280;67943;54.412;9.502;2024-03-02T10:57:50;100341.28;;;15.88;50.72
78623;BME280;67943;54.412;9.502;2024-03-02T11:02:57;100340.28;;;15.73;51.13
78623;BME280;67943;54.412;9.502;2024-03-02T11:08:01;100342.97;;;15.54;51.81
78623;BME280;67943;54.412;9.502;2024-03-02T11:13:09;100344.31;;;14.90;53.72
78623;BME280;67943;54.412;9.502;2024-03-02T11:18:11;100357.09;;;15.00;53.63
78623;BME280;67943;54.412;9.502;2024-03-02T11:23:15;100362.06;;;15.25;53.29
78623;BME280;67943;54.412;9.502;2024-03-02T11:28:34;100354.00;;;15.45;52.94
78623;BME280;67943;54.412;9.502;2024-03-02T11:33:36;100356.13;;;15.58;52.60
78623;BME280;67943;54.412;9.502;2024-03-02T11:38:38;100363.66;;;15.65;52.31
78623;BME280;67943;54.412;9.502;2024-03-02T11:43:41;100365.81;;;15.76;52.78
78623;BME280;67943;54.412;9.502;2024-03-02T11:48:46;100368.44;;;15.59;52.70
78623;BME280;67943;54.412;9.502;2024-03-02T11:53:48;100366.63;;;15.40;53.04
78623;BME280;67943;54.412;9.502;2024-03-02T11:58:53;100374.78;;;15.54;52.33
78623;BME280;67943;54.412;9.502;2024-03-02T12:03:55;100362.00;;;16.16;51.18
78623;BME280;67943;54.412;9.502;2024-03-02T12:08:57;100367.41;;;17.29;48.39
78623;BME280;67943;54.412;9.502;2024-03-02T12:14:00;100370.22;;;17.42;47.20
78623;BME280;67943;54.412;9.502;2024-03-02T12:19:02;100357.78;;;16.95;46.68
78623;BME280;67943;54.412;9.502;2024-03-02T12:24:04;100373.97;;;16.91;47.20
78623;BME280;67943;54.412;9.502;2024-03-02T12:29:07;100363.41;;;16.73;46.93
78623;BME280;67943;54.412;9.502;2024-03-02T12:34:09;100355.19;;;17.57;45.16
78623;BME280;67943;54.412;9.502;2024-03-02T12:39:10;100353.97;;;17.78;44.98
78623;BME280;67943;54.412;9.502;2024-03-02T12:44:13;100350.75;;;18.61;43.70
78623;BME280;67943;54.412;9.502;2024-03-02T12:49:15;100350.97;;;19.28;42.96
78623;BME280;67943;54.412;9.502;2024-03-02T12:54:17;100357.19;;;19.95;40.65
78623;BME280;67943;54.412;9.502;2024-03-02T12:59:21;100350.13;;;21.33;38.63
78623;BME280;67943;54.412;9.502;2024-03-02T13:04:27;100342.25;;;22.37;36.19
78623;BME280;67943;54.412;9.502;2024-03-02T13:09:29;100335.81;;;22.39;35.23
78623;BME280;67943;54.412;9.502;2024-03-02T13:14:33;100335.50;;;23.00;34.26
78623;BME280;67943;54.412;9.502;2024-03-02T13:19:35;100339.47;;;23.39;34.40
78623;BME280;67943;54.412;9.502;2024-03-02T13:24:37;100343.22;;;24.32;32.20
78623;BME280;67943;54.412;9.502;2024-03-02T13:29:39;100330.13;;;22.88;34.28
78623;BME280;67943;54.412;9.502;2024-03-02T13:34:41;100333.19;;;23.49;33.15
78623;BME280;67943;54.412;9.502;2024-03-02T13:39:43;100324.88;;;22.98;33.97
78623;BME280;67943;54.412;9.502;2024-03-02T13:44:46;100327.16;;;22.36;34.33
78623;BME280;67943;54.412;9.502;2024-03-02T13:49:50;100322.47;;;20.47;36.99
78623;BME280;67943;54.412;9.502;2024-03-02T13:54:51;100320.56;;;19.84;39.07
78623;BME280;67943;54.412;9.502;2024-03-02T13:59:55;100322.72;;;19.65;39.92
78623;BME280;67943;54.412;9.502;2024-03-02T14:04:56;100326.69;;;20.11;39.35
78623;BME280;67943;54.412;9.502;2024-03-02T14:09:58;100333.94;;;20.09;38.87
78623;BME280;67943;54.412;9.502;2024-03-02T14:15:01;100339.66;;;19.78;40.03
78623;BME280;67943;54.412;9.502;2024-03-02T14:20:05;100331.34;;;19.82;39.98
78623;BME280;67943;54.412;9.502;2024-03-02T14:25:08;100328.16;;;20.03;39.87
78623;BME280;67943;54.412;9.502;2024-03-02T14:30:12;100323.66;;;20.03;39.50
78623;BME280;67943;54.412;9.502;2024-03-02T14:35:14;100329.72;;;19.26;40.78
78623;BME280;67943;54.412;9.502;2024-03-02T14:40:15;100323.69;;;18.81;41.39
78623;BME280;67943;54.412;9.502;2024-03-02T14:45:18;100321.97;;;18.95;41.78
78623;BME280;67943;54.412;9.502;2024-03-02T14:50:20;100320.03;;;20.04;39.85
78623;BME280;67943;54.412;9.502;2024-03-02T14:55:21;100313.50;;;20.84;37.37
78623;BME280;67943;54.412;9.502;2024-03-02T15:00:25;100318.25;;;20.68;37.47
78623;BME280;67943;54.412;9.502;2024-03-02T15:05:27;100318.03;;;21.08;36.82
78623;BME280;67943;54.412;9.502;2024-03-02T15:10:28;100313.09;;;21.51;36.26
78623;BME280;67943;54.412;9.502;2024-03-02T15:15:31;100309.22;;;22.25;35.02
78623;BME280;67943;54.412;9.502;2024-03-02T15:20:32;100306.31;;;21.82;35.25
78623;BME280;67943;54.412;9.502;2024-03-02T15:25:34;100304.75;;;22.37;35.00
78623;BME280;67943;54.412;9.502;2024-03-02T15:30:37;100301.56;;;22.32;34.91
78623;BME280;67943;54.412;9.502;2024-03-02T15:35:38;100309.41;;;21.41;36.26
78623;BME280;67943;54.412;9.502;2024-03-02T15:40:40;100303.22;;;21.04;36.92
78623;BME280;67943;54.412;9.502;2024-03-02T15:45:43;100297.78;;;20.93;37.08
78623;BME280;67943;54.412;9.502;2024-03-02T15:50:44;100299.56;;;21.05;36.86
78623;BME280;67943;54.412;9.502;2024-03-02T15:55:46;100290.78;;;20.79;37.09
78623;BME280;67943;54.412;9.502;2024-03-02T16:00:49;100301.69;;;20.12;38.51
78623;BME280;67943;54.412;9.502;2024-03-02T16:05:50;100302.22;;;19.11;40.27
78623;BME280;67943;54.412;9.502;2024-03-02T16:10:52;100304.50;;;18.62;41.31
78623;BME280;67943;54.412;9.502;2024-03-02T16:15:55;100310.38;;;17.80;43.34
78623;BME280;67943;54.412;9.502;2024-03-02T16:20:56;100313.44;;;17.11;44.94
78623;BME280;67943;54.412;9.502;2024-03-02T16:25:58;100309.50;;;16.54;46.40
78623;BME280;67943;54.412;9.502;2024-03-02T16:31:01;100316.03;;;16.15;48.00
78623;BME280;67943;54.412;9.502;2024-03-02T16:36:02;100319.13;;;15.89;49.38
78623;BME280;67943;54.412;9.502;2024-03-02T16:41:04;100321.91;;;15.51;50.95
78623;BME280;67943;54.412;9.502;2024-03-02T16:46:08;100341.16;;;15.19;52.35
78623;BME280;67943;54.412;9.502;2024-03-02T16:51:10;100340.41;;;14.98;53.10
78623;BME280;67943;54.412;9.502;2024-03-02T16:56:12;100339.31;;;14.83;53.75
78623;BME280;67943;54.412;9.502;2024-03-02T17:01:15;100349.91;;;14.65;54.61
78623;BME280;67943;54.412;9.502;2024-03-02T17:06:16;100353.16;;;14.51;54.87
78623;BME280;67943;54.412;9.502;2024-03-02T17:11:18;100363.59;;;14.34;55.37
78623;BME280;67943;54.412;9.502;2024-03-02T17:16:20;100361.97;;;14.11;56.28
78623;BME280;67943;54.412;9.502;2024-03-02T17:21:23;100368.75;;;13.96;56.66
78623;BME280;67943;54.412;9.502;2024-03-02T17:26:25;100369.28;;;13.84;56.85
78623;BME280;67943;54.412;9.502;2024-03-02T17:31:28;100369.72;;;13.73;57.19
78623;BME280;67943;54.412;9.502;2024-03-02T17:36:30;100380.19;;;13.55;57.85
78623;BME280;67943;54.412;9.502;2024-03-02T17:41:31;100387.56;;;13.46;58.05
78623;BME280;67943;54.412;9.502;2024-03-02T17:46:34;100388.72;;;13.39;58.27
78623;BME280;67943;54.412;9.502;2024-03-02T17:51:36;100399.72;;;13.29;58.74
78623;BME280;67943;54.412;9.502;2024-03-02T17:56:37;100396.72;;;13.14;59.11
78623;BME280;67943;54.412;9.502;2024-03-02T18:01:40;100397.94;;;13.06;59.58
78623;BME280;67943;54.412;9.502;2024-03-02T18:06:42;100400.88;;;12.98;59.62
78623;BME280;67943;54.412;9.502;2024-03-02T18:11:43;100403.91;;;12.88;59.79
78623;BME280;67943;54.412;9.502;2024-03-02T18:16:46;100406.94;;;12.77;60.22
78623;BME280;67943;54.412;9.502;2024-03-02T18:21:48;100404.59;;;12.69;60.04
78623;BME280;67943;54.412;9.502;2024-03-02T18:26:49;100413.91;;;12.55;60.35
78623;BME280;67943;54.412;9.502;2024-03-02T18:31:52;100408.81;;;12.50;60.40
78623;BME280;67943;54.412;9.502;2024-03-02T18:36:54;100409.72;;;12.49;60.41
78623;BME280;67943;54.412;9.502;2024-03-02T18:41:55;100410.16;;;12.37;60.69
78623;BME280;67943;54.412;9.502;2024-03-02T18:46:58;100411.34;;;12.28;60.93
78623;BME280;67943;54.412;9.502;2024-03-02T18:52:00;100416.78;;;12.24;60.91
78623;BME280;67943;54.412;9.502;2024-03-02T18:57:02;100416.06;;;12.18;60.97
78623;BME280;67943;54.412;9.502;2024-03-02T19:02:05;100419.84;;;12.11;61.25
78623;BME280;67943;54.412;9.502;2024-03-02T19:07:07;100422.78;;;12.02;61.27
78623;BME280;67943;54.412;9.502;2024-03-02T19:12:10;100437.88;;;11.97;61.47
78623;BME280;67943;54.412;9.502;2024-03-02T19:17:13;100420.53;;;11.90;61.41
78623;BME280;67943;54.412;9.502;2024-03-02T19:22:15;100435.66;;;11.85;61.40
78623;BME280;67943;54.412;9.502;2024-03-02T19:27:16;100428.66;;;11.84;61.64
78623;BME280;67943;54.412;9.502;2024-03-02T19:32:19;100427.16;;;11.75;61.49
78623;BME280;67943;54.412;9.502;2024-03-02T19:37:22;100436.06;;;11.71;61.62
78623;BME280;67943;54.412;9.502;2024-03-02T19:42:23;100438.91;;;11.65;61.96
78623;BME280;67943;54.412;9.502;2024-03-02T19:47:26;100431.22;;;11.58;61.98
78623;BME280;67943;54.412;9.502;2024-03-02T19:52:29;100434.91;;;11.54;62.03
78623;BME280;67943;54.412;9.502;2024-03-02T19:57:31;100431.81;;;11.39;62.61
78623;BME280;67943;54.412;9.502;2024-03-02T20:02:34;100441.66;;;11.33;62.85
78623;BME280;67943;54.412;9.502;2024-03-02T20:07:36;100443.47;;;11.31;62.87
78623;BME280;67943;54.412;9.502;2024-03-02T20:12:40;100441.97;;;11.24;63.35
78623;BME280;67943;54.412;9.502;2024-03-02T20:17:43;100441.38;;;11.14;63.91
78623;BME280;67943;54.412;9.502;2024-03-02T20:22:44;100442.41;;;11.08;64.14
78623;BME280;67943;54.412;9.502;2024-03-02T20:27:46;100450.25;;;11.10;63.99
78623;BME280;67943;54.412;9.502;2024-03-02T20:32:49;100444.91;;;11.13;64.15
78623;BME280;67943;54.412;9.502;2024-03-02T20:37:50;100442.63;;;11.01;64.50
78623;BME280;67943;54.412;9.502;2024-03-02T20:42:52;100452.44;;;10.96;64.86
78623;BME280;67943;54.412;9.502;2024-03-02T20:47:56;100443.81;;;10.91;64.89
78623;BME280;67943;54.412;9.502;2024-03-02T20:52:58;100440.44;;;10.86;65.08
78623;BME280;67943;54.412;9.502;2024-03-02T20:58:04;100449.28;;;10.83;64.97
78623;BME280;67943;54.412;9.502;2024-03-02T21:03:07;100454.66;;;10.78;65.28
78623;BME280;67943;54.412;9.502;2024-03-02T21:08:08;100453.03;;;10.74;65.55
78623;BME280;67943;54.412;9.502;2024-03-02T21:13:10;100457.63;;;10.68;65.88
78623;BME280;67943;54.412;9.502;2024-03-02T21:18:13;100458.56;;;10.65;66.05
78623;BME280;67943;54.412;9.502;2024-03-02T21:23:15;100465.72;;;10.60;66.25
78623;BME280;67943;54.412;9.502;2024-03-02T21:28:16;100465.78;;;10.57;67.05
78623;BME280;67943;54.412;9.502;2024-03-02T21:33:19;100467.72;;;10.51;67.51
78623;BME280;67943;54.412;9.502;2024-03-02T21:38:21;100461.69;;;10.45;68.01
78623;BME280;67943;54.412;9.502;2024-03-02T21:43:23;100456.53;;;10.42;68.54
78623;BME280;67943;54.412;9.502;2024-03-02T21:48:27;100469.81;;;10.38;69.20
78623;BME280;67943;54.412;9.502;2024-03-02T21:53:29;100456.91;;;10.29;70.09
78623;BME280;67943;54.412;9.502;2024-03-02T21:58:30;100457.81;;;10.28;70.32
78623;BME280;67943;54.412;9.502;2024-03-02T22:03:33;100464.69;;;10.33;70.50
78623;BME280;67943;54.412;9.502;2024-03-02T22:08:35;100457.75;;;10.29;71.10
78623;BME280;67943;54.412;9.502;2024-03-02T22:13:36;100454.31;;;10.27;71.00
78623;BME280;67943;54.412;9.502;2024-03-02T22:18:39;100456.09;;;10.25;71.52
78623;BME280;67943;54.412;9.502;2024-03-02T22:23:41;100451.91;;;10.16;71.81
78623;BME280;67943;54.412;9.502;2024-03-02T22:28:42;100450.19;;;10.15;71.94
78623;BME280;67943;54.412;9.502;2024-03-02T22:33:45;100445.81;;;10.14;72.18
78623;BME280;67943;54.412;9.502;2024-03-02T22:38:46;100446.97;;;10.04;72.55
78623;BME280;67943;54.412;9.502;2024-03-02T22:43:48;100448.66;;;10.07;72.64
78623;BME280;67943;54.412;9.502;2024-03-02T22:48:51;100433.75;;;10.07;72.74
78623;BME280;67943;54.412;9.502;2024-03-02T22:53:54;100433.91;;;10.01;72.92
78623;BME280;67943;54.412;9.502;2024-03-02T22:58:55;100434.88;;;9.97;73.48
78623;BME280;67943;54.412;9.502;2024-03-02T23:03:59;100428.78;;;9.95;73.58
78623;BME280;67943;54.412;9.502;2024-03-02T23:09:00;100427.97;;;9.93;73.84
78623;BME280;67943;54.412;9.502;2024-03-02T23:14:03;100420.00;;;9.96;73.85
78623;BME280;67943;54.412;9.502;2024-03-02T23:19:07;100424.63;;;9.87;74.14
78623;BME280;67943;54.412;9.502;2024-03-02T23:24:08;100424.72;;;9.82;74.65
78623;BME280;67943;54.412;9.502;2024-03-02T23:29:10;100431.00;;;9.78;74.82
78623;BME280;67943;54.412;9.502;2024-03-02T23:34:13;100422.09;;;9.82;74.63
78623;BME280;67943;54.412;9.502;2024-03-02T23:39:14;100431.78;;;9.81;74.76
78623;BME280;67943;54.412;9.502;2024-03-02T23:44:37;100425.72;;;9.78;75.27
78623;BME280;67943;54.412;9.502;2024-03-02T23:49:40;100427.59;;;9.73;75.59
78623;BME280;67943;54.412;9.502;2024-03-02T23:54:42;100437.03;;;9.81;75.71
78623;BME280;67943;54.412;9.502;2024-03-02T23:59:43;100438.94;;;9.75;76.19
